Terminal Aerodrome Forecast
Issued by NWS Bismarck, ND

Home | Current Version | Previous Version | Text Only | Print | Product List | Glossary Off
Versions: 1 2 3 4 5 6 7 8 9 10 11 12 13 14 15 16 17 18 19 20 21 22 23

000
FTUS43 KBIS 251700
TAFBIS
TAF
KBIS 251738Z 2518/2618 29018G25KT P6SM OVC040
     FM260000 31008KT P6SM SCT035
     FM260800 25004KT P6SM SCT040
     FM261600 20007KT P6SM SCT030 BKN140=

USA.gov is the U.S. government's official web portal to all federal, state and local government web resources and services.